Time;durP1;ratioP1;P1;durP2;ratioP2;P2;SDS_P1;SDS_P2;PMS_P1;PMS_P2;Temp;Humidity;BMP_temperature;BMP_pressure;BME280_temperature;BME280_humidity;BME280_pressure;Samples;Min_cycle;Max_cycle;Signal;HPM_P1;HPM_P2
2023/07/29 00:00:56;;;;;;;2.30;1.40;;;;;;;19.68;57.66;100384.63;5060077;28;20044;-71
2023/07/29 00:03:24;;;;;;;2.95;1.40;;;;;;;19.68;57.95;100381.84;5063061;28;20059;-71
2023/07/29 00:05:53;;;;;;;2.38;1.30;;;;;;;19.70;57.80;100380.59;5063368;28;20048;-71
2023/07/29 00:08:21;;;;;;;3.05;1.60;;;;;;;19.68;58.12;100376.28;5062989;28;20040;-72
2023/07/29 00:10:49;;;;;;;3.72;1.98;;;;;;;19.68;58.04;100366.03;5061978;28;20109;-71
2023/07/29 00:13:17;;;;;;;3.13;1.67;;;;;;;19.69;57.90;100364.13;5062541;28;20052;-71
2023/07/29 00:15:49;;;;;;;2.38;1.50;;;;;;;19.67;58.12;100367.09;5061677;28;20540;-72
2023/07/29 00:18:16;;;;;;;2.42;1.60;;;;;;;19.69;58.29;100359.44;5061728;28;20306;-72
2023/07/29 00:20:45;;;;;;;3.35;1.73;;;;;;;19.70;58.18;100351.97;5063567;28;20058;-72
2023/07/29 00:23:14;;;;;;;2.63;1.70;;;;;;;19.71;58.08;100356.47;5044027;28;20528;-71
2023/07/29 00:25:42;;;;;;;2.55;1.50;;;;;;;19.69;57.95;100351.09;5061378;28;20639;-72
2023/07/29 00:28:10;;;;;;;2.88;1.80;;;;;;;19.70;58.00;100354.75;5061829;28;20435;-71
2023/07/29 00:30:38;;;;;;;2.65;1.60;;;;;;;19.68;58.19;100345.75;5061837;28;20055;-72
2023/07/29 00:33:06;;;;;;;3.60;1.92;;;;;;;19.67;58.12;100358.78;5044652;28;20082;-71
2023/07/29 00:35:35;;;;;;;3.80;1.98;;;;;;;19.67;57.88;100356.00;5044485;28;20912;-72
2023/07/29 00:38:03;;;;;;;3.55;1.90;;;;;;;19.66;58.02;100357.06;5044181;28;20059;-72
2023/07/29 00:40:36;;;;;;;3.22;1.63;;;;;;;19.69;58.12;100353.88;5061732;28;20086;-72
2023/07/29 00:43:04;;;;;;;3.10;1.92;;;;;;;19.63;58.27;100354.69;5043669;28;20055;-72
2023/07/29 00:45:33;;;;;;;3.83;2.10;;;;;;;19.64;58.17;100354.47;5043301;28;20098;-71
2023/07/29 00:48:03;;;;;;;3.45;1.90;;;;;;;19.64;57.74;100353.63;5060650;28;20055;-72
2023/07/29 00:50:33;;;;;;;3.47;1.85;;;;;;;19.65;57.73;100347.00;5043640;28;20181;-72
2023/07/29 00:53:01;;;;;;;3.08;1.95;;;;;;;19.63;58.09;100335.25;5043801;28;20048;-72
2023/07/29 00:55:29;;;;;;;2.72;1.90;;;;;;;19.62;58.14;100341.91;5042824;28;20641;-72
2023/07/29 00:57:59;;;;;;;2.60;1.52;;;;;;;19.64;57.88;100345.28;5042983;28;20044;-72
2023/07/29 01:00:28;;;;;;;2.65;1.70;;;;;;;19.62;57.89;100341.91;5041215;28;20134;-72
2023/07/29 01:02:56;;;;;;;2.42;1.70;;;;;;;19.61;58.02;100337.41;5062257;28;20040;-72
2023/07/29 01:05:30;;;;;;;3.38;2.15;;;;;;;19.62;57.95;100339.94;5042326;28;20104;-72
2023/07/29 01:08:04;;;;;;;3.78;1.90;;;;;;;19.62;57.81;100334.38;5062325;28;20082;-72
2023/07/29 01:10:40;;;;;;;2.80;1.90;;;;;;;19.60;58.25;100333.75;5041888;28;20502;-72
2023/07/29 01:13:20;;;;;;;3.67;2.10;;;;;;;19.59;58.18;100326.50;5059717;28;20044;-71
2023/07/29 01:15:55;;;;;;;4.00;1.90;;;;;;;19.59;58.12;100322.88;5060364;28;20063;-72
2023/07/29 01:18:24;;;;;;;4.28;2.35;;;;;;;19.56;58.14;100324.13;5044478;28;20076;-72
2023/07/29 01:20:55;;;;;;;3.55;2.08;;;;;;;19.57;58.16;100322.19;5061196;28;20162;-71
2023/07/29 01:23:30;;;;;;;3.08;2.00;;;;;;;19.57;58.23;100313.88;5061685;28;20062;-72
2023/07/29 01:25:59;;;;;;;3.17;2.03;;;;;;;19.52;57.73;100314.50;5041815;28;20300;-72
2023/07/29 01:28:28;;;;;;;3.17;2.20;;;;;;;19.52;57.92;100308.97;5061874;28;20509;-72
2023/07/29 01:31:02;;;;;;;3.75;2.47;;;;;;;19.52;58.07;100317.28;5061798;28;20040;-72
2023/07/29 01:33:36;;;;;;;3.30;2.00;;;;;;;19.51;57.92;100318.34;5043726;28;20093;-72
2023/07/29 01:36:09;;;;;;;3.55;2.15;;;;;;;19.50;57.93;100321.31;5062377;28;20555;-72
2023/07/29 01:38:41;;;;;;;3.55;1.88;;;;;;;19.49;58.07;100323.25;5061276;28;21057;-72
2023/07/29 01:41:10;;;;;;;2.85;1.77;;;;;;;19.44;57.75;100323.00;5061214;28;20446;-72
2023/07/29 01:43:43;;;;;;;2.47;1.70;;;;;;;19.46;58.18;100320.03;5043194;28;20043;-72
2023/07/29 01:46:12;;;;;;;3.15;1.75;;;;;;;19.45;57.85;100326.66;5060674;28;20044;-72
2023/07/29 01:48:40;;;;;;;4.20;2.45;;;;;;;19.44;58.06;100311.91;5041979;28;20398;-72
2023/07/29 01:51:09;;;;;;;4.15;1.83;;;;;;;19.45;57.94;100318.31;5041801;28;20048;-72
2023/07/29 01:53:39;;;;;;;4.03;2.03;;;;;;;19.45;58.08;100318.31;5042318;28;20076;-72
2023/07/29 01:56:08;;;;;;;3.13;2.00;;;;;;;19.42;58.33;100311.25;5058680;28;20143;-72
2023/07/29 01:58:39;;;;;;;2.70;1.80;;;;;;;19.42;58.19;100310.38;5041461;28;20052;-72
2023/07/29 02:01:07;;;;;;;3.15;2.00;;;;;;;19.42;58.01;100305.69;5040915;28;20074;-72
2023/07/29 02:03:35;;;;;;;3.00;1.80;;;;;;;19.41;58.22;100297.56;5041669;28;20139;-72
2023/07/29 02:06:03;;;;;;;3.05;2.00;;;;;;;19.41;58.46;100295.66;5041368;28;20094;-72
2023/07/29 02:08:31;;;;;;;3.17;1.90;;;;;;;19.41;58.18;100289.25;5042530;28;20051;-72
2023/07/29 02:11:01;;;;;;;3.30;2.05;;;;;;;19.43;58.04;100287.13;5042305;28;20037;-72
2023/07/29 02:13:29;;;;;;;4.10;2.13;;;;;;;19.40;58.16;100285.63;5043975;28;20491;-73
2023/07/29 02:15:57;;;;;;;3.78;1.88;;;;;;;19.40;58.18;100293.94;5058722;28;20054;-72
2023/07/29 02:18:25;;;;;;;3.03;1.80;;;;;;;19.39;58.45;100305.25;5061810;28;20052;-73
2023/07/29 02:20:53;;;;;;;2.80;1.63;;;;;;;19.39;58.09;100306.09;5045141;28;20057;-72
2023/07/29 02:23:20;;;;;;;3.08;1.70;;;;;;;19.39;58.22;100311.66;5043789;28;20138;-72
2023/07/29 02:25:48;;;;;;;2.78;1.70;;;;;;;19.39;58.30;100305.25;5060342;28;20055;-73
2023/07/29 02:28:17;;;;;;;2.67;1.63;;;;;;;19.40;58.26;100299.50;5043008;28;20044;-73
2023/07/29 02:30:46;;;;;;;3.72;1.70;;;;;;;19.40;58.18;100301.41;5040106;28;20052;-72
2023/07/29 02:33:14;;;;;;;2.78;1.73;;;;;;;19.40;58.39;100298.63;5045152;28;20046;-73
2023/07/29 02:35:42;;;;;;;3.05;1.85;;;;;;;19.39;58.32;100297.78;5064458;28;20917;-73
2023/07/29 02:38:10;;;;;;;2.63;1.55;;;;;;;19.39;58.34;100295.00;5046942;28;20514;-73
2023/07/29 02:40:38;;;;;;;3.15;1.42;;;;;;;19.40;58.68;100299.50;5045309;28;20047;-72
2023/07/29 02:43:06;;;;;;;3.88;1.50;;;;;;;19.40;58.24;100296.72;5045672;28;20129;-73
2023/07/29 02:45:36;;;;;;;3.38;1.50;;;;;;;19.43;58.29;100295.47;5044267;28;20406;-73
2023/07/29 02:48:04;;;;;;;2.38;1.48;;;;;;;19.41;58.34;100297.56;5045640;28;20052;-73
2023/07/29 02:50:32;;;;;;;2.75;1.60;;;;;;;19.41;58.49;100300.34;5044850;28;20189;-73
2023/07/29 02:53:00;;;;;;;2.15;1.50;;;;;;;19.41;58.39;100309.53;5046508;28;20552;-72
2023/07/29 02:55:28;;;;;;;2.13;1.45;;;;;;;19.42;58.43;100299.28;5063369;28;20050;-73
2023/07/29 02:57:56;;;;;;;2.60;1.73;;;;;;;19.41;58.20;100303.97;5046054;28;20047;-73
2023/07/29 03:00:25;;;;;;;3.35;1.60;;;;;;;19.42;58.36;100296.50;5043341;28;21172;-72
2023/07/29 03:02:54;;;;;;;3.95;1.60;;;;;;;19.44;58.54;100302.72;5047006;28;20044;-72
2023/07/29 03:05:23;;;;;;;3.00;1.60;;;;;;;19.42;58.37;100296.50;5045445;28;20063;-73
2023/07/29 03:07:51;;;;;;;2.70;1.70;;;;;;;19.43;58.47;100307.41;5047011;28;20051;-73
2023/07/29 03:10:18;;;;;;;3.60;1.63;;;;;;;19.43;58.57;100303.78;5044872;28;20287;-73
2023/07/29 03:12:47;;;;;;;2.60;1.52;;;;;;;19.43;58.21;100310.19;5044714;28;20198;-72
2023/07/29 03:15:15;;;;;;;3.35;1.73;;;;;;;19.42;58.44;100302.94;5042857;28;20080;-72
2023/07/29 03:17:43;;;;;;;3.22;1.58;;;;;;;19.43;58.31;100292.69;5046238;28;20692;-72
2023/07/29 03:20:12;;;;;;;2.50;1.70;;;;;;;19.44;58.25;100292.47;5044197;28;20043;-72
2023/07/29 03:22:40;;;;;;;2.90;1.60;;;;;;;19.43;58.17;100299.09;5044793;28;20704;-72
2023/07/29 03:25:09;;;;;;;2.45;1.55;;;;;;;19.44;58.28;100294.41;5042960;28;20696;-72
2023/07/29 03:27:37;;;;;;;2.60;1.60;;;;;;;19.44;58.12;100288.84;5045841;28;20078;-72
2023/07/29 03:30:08;;;;;;;2.88;1.40;;;;;;;19.45;58.41;100293.34;5062442;28;20135;-72
2023/07/29 03:32:41;;;;;;;1.90;1.30;;;;;;;19.44;58.25;100295.25;5045663;28;20434;-72
2023/07/29 03:35:12;;;;;;;2.10;1.50;;;;;;;19.43;58.29;100281.59;5044367;28;20178;-73
2023/07/29 03:37:41;;;;;;;2.72;1.67;;;;;;;19.45;58.12;100273.91;5046128;28;20048;-72
2023/07/29 03:40:13;;;;;;;3.67;1.67;;;;;;;19.45;58.11;100254.50;5045061;28;20834;-72
2023/07/29 03:42:41;;;;;;;3.22;1.58;;;;;;;19.41;58.15;100272.59;5044599;28;20090;-72
2023/07/29 03:45:09;;;;;;;2.70;1.35;;;;;;;19.44;58.33;100275.84;5039469;28;20546;-72
2023/07/29 03:47:37;;;;;;;3.53;1.50;;;;;;;19.43;58.17;100270.47;5040488;28;20052;-72
2023/07/29 03:50:07;;;;;;;2.28;1.42;;;;;;;19.44;58.18;100280.53;5036854;28;20044;-72
2023/07/29 03:52:35;;;;;;;3.33;1.70;;;;;;;19.42;57.90;100293.75;5044848;28;20518;-72
2023/07/29 03:55:05;;;;;;;2.72;1.35;;;;;;;19.44;57.90;100289.72;5059634;28;20040;-72
2023/07/29 03:57:34;;;;;;;3.37;1.53;;;;;;;19.40;57.99;100304.19;5044229;28;20182;-72
2023/07/29 04:00:03;;;;;;;2.30;1.40;;;;;;;19.41;57.89;100303.97;5040733;28;20269;-72
2023/07/29 04:02:31;;;;;;;3.85;1.65;;;;;;;19.40;57.95;100296.72;5061905;28;20048;-72
2023/07/29 04:05:00;;;;;;;3.72;1.75;;;;;;;19.40;58.03;100290.31;5042014;28;20309;-72
2023/07/29 04:07:28;;;;;;;3.13;1.60;;;;;;;19.40;58.06;100299.50;5042787;28;20055;-72
2023/07/29 04:09:56;;;;;;;2.50;1.38;;;;;;;19.39;58.03;100294.13;5042150;28;20048;-72
2023/07/29 04:12:26;;;;;;;2.97;1.60;;;;;;;19.42;58.19;100296.50;5042325;28;20962;-72
2023/07/29 04:14:54;;;;;;;3.28;1.77;;;;;;;19.40;58.32;100290.31;5042247;28;20141;-72
2023/07/29 04:17:22;;;;;;;3.47;1.40;;;;;;;19.39;58.15;100286.69;5060854;28;20416;-72
2023/07/29 04:19:50;;;;;;;2.50;1.50;;;;;;;19.38;57.90;100296.06;5042316;28;20557;-72
2023/07/29 04:22:20;;;;;;;1.95;1.42;;;;;;;19.38;58.26;100292.47;5045052;28;20053;-72
2023/07/29 04:24:49;;;;;;;3.63;1.73;;;;;;;19.38;58.02;100309.09;5044025;28;20048;-72
2023/07/29 04:27:16;;;;;;;3.30;1.60;;;;;;;19.38;57.91;100311.88;5043633;28;20044;-72
2023/07/29 04:29:46;;;;;;;2.75;1.50;;;;;;;19.39;57.92;100324.66;5044196;28;20048;-72
2023/07/29 04:32:14;;;;;;;3.17;1.70;;;;;;;19.37;57.98;100330.44;5044687;28;20102;-72
2023/07/29 04:34:42;;;;;;;3.47;1.70;;;;;;;19.36;57.63;100328.72;5061385;28;20142;-72
2023/07/29 04:37:10;;;;;;;2.65;1.63;;;;;;;19.36;57.83;100328.72;5062807;28;20155;-72
2023/07/29 04:39:38;;;;;;;2.42;1.45;;;;;;;19.36;57.87;100325.09;5062356;28;20052;-72
2023/07/29 04:42:07;;;;;;;2.75;1.50;;;;;;;19.35;57.73;100334.47;5044001;28;20054;-72
2023/07/29 04:44:35;;;;;;;3.33;1.75;;;;;;;19.34;57.67;100333.63;5044165;28;21051;-72
2023/07/29 04:47:05;;;;;;;3.72;1.67;;;;;;;19.35;57.89;100342.81;5044264;28;20244;-72
2023/07/29 04:49:33;;;;;;;3.28;1.88;;;;;;;19.32;57.72;100337.66;5044747;28;20218;-72
2023/07/29 04:52:01;;;;;;;2.85;1.63;;;;;;;19.29;57.55;100327.84;5062435;28;20201;-72
2023/07/29 04:54:28;;;;;;;3.50;1.90;;;;;;;19.30;57.57;100328.66;5041186;28;20052;-72
2023/07/29 04:56:56;;;;;;;2.83;1.60;;;;;;;19.28;57.39;100326.13;5062471;28;20083;-72
2023/07/29 04:59:24;;;;;;;3.08;1.63;;;;;;;19.27;57.37;100313.31;5041894;28;20679;-72
2023/07/29 05:01:52;;;;;;;2.60;1.58;;;;;;;19.26;57.56;100309.66;5043536;28;20502;-72
2023/07/29 05:04:24;;;;;;;2.45;1.73;;;;;;;19.27;57.08;100308.63;5059515;28;20052;-72
2023/07/29 05:06:52;;;;;;;2.15;1.63;;;;;;;19.25;57.60;100299.63;5062652;28;20044;-72
2023/07/29 05:09:20;;;;;;;3.10;1.60;;;;;;;19.25;57.56;100304.31;5060168;28;20490;-72
2023/07/29 05:11:49;;;;;;;2.65;1.80;;;;;;;19.25;57.70;100298.78;5043629;28;20058;-72
2023/07/29 05:14:18;;;;;;;2.47;1.65;;;;;;;19.26;57.49;100300.50;5041182;28;22060;-72
2023/07/29 05:16:47;;;;;;;2.92;1.55;;;;;;;19.24;57.73;100295.13;5042979;28;20142;-72
2023/07/29 05:19:15;;;;;;;3.75;1.90;;;;;;;19.25;57.60;100307.09;5041660;28;20056;-72
2023/07/29 05:21:44;;;;;;;3.13;1.70;;;;;;;19.27;57.29;100318.84;5042763;28;20064;-72
2023/07/29 05:24:12;;;;;;;3.08;1.80;;;;;;;19.25;57.33;100312.66;5041939;28;20059;-72
2023/07/29 05:26:40;;;;;;;2.67;1.92;;;;;;;19.25;57.30;100320.97;5061733;28;20044;-72
2023/07/29 05:29:08;;;;;;;3.50;1.80;;;;;;;19.26;57.24;100331.00;5041768;28;20140;-72
2023/07/29 05:31:36;;;;;;;3.00;1.65;;;;;;;19.26;57.69;100339.34;5039078;28;20051;-72
2023/07/29 05:34:04;;;;;;;3.65;2.00;;;;;;;19.26;57.74;100342.97;5059715;28;20611;-72
2023/07/29 05:36:32;;;;;;;3.60;1.83;;;;;;;19.27;57.67;100352.16;5041045;28;20570;-72
2023/07/29 05:39:01;;;;;;;3.15;1.90;;;;;;;19.28;57.34;100348.31;5042283;28;20854;-72
2023/07/29 05:41:29;;;;;;;2.75;1.70;;;;;;;19.26;57.40;100353.19;5040987;28;20418;-72
2023/07/29 05:43:57;;;;;;;2.80;1.70;;;;;;;19.25;57.50;100355.13;5041204;28;20501;-72
2023/07/29 06:32:57;;;;;;;2.25;1.35;;;;;;;18.98;56.26;100422.50;4936170;28;20079;-86
2023/07/29 06:35:25;;;;;;;2.30;1.48;;;;;;;19.02;56.70;100426.59;5007542;28;20056;-84
2023/07/29 06:37:53;;;;;;;2.38;1.35;;;;;;;19.05;56.30;100428.97;5030312;28;20126;-84
2023/07/29 06:40:21;;;;;;;2.50;1.20;;;;;;;19.06;56.13;100425.13;5031037;28;20053;-84
2023/07/29 06:42:49;;;;;;;2.15;1.27;;;;;;;19.08;56.54;100423.03;5029959;28;20048;-84
2023/07/29 06:45:46;;;;;;;1.77;1.33;;;;;;;19.12;55.43;100415.16;5033837;28;20056;-82
2023/07/29 07:47:03;;;;;;;2.45;1.15;;;;;;;19.40;55.77;100435.47;4861524;29;20076;-86
2023/07/29 07:49:32;;;;;;;2.47;1.33;;;;;;;19.50;56.84;100443.44;4880597;29;20060;-83
2023/07/29 07:52:00;;;;;;;2.65;1.27;;;;;;;19.66;56.83;100437.56;4951960;28;20041;-81
2023/07/29 07:54:28;;;;;;;2.08;1.08;;;;;;;19.78;56.42;100444.28;5032053;28;20049;-82
2023/07/29 07:56:55;;;;;;;3.47;1.10;;;;;;;19.91;56.01;100440.72;5033831;28;20096;-84
2023/07/29 07:59:23;;;;;;;2.17;1.17;;;;;;;20.00;55.64;100445.91;5032785;28;20053;-83
2023/07/29 08:01:52;;;;;;;2.67;1.30;;;;;;;20.10;55.22;100448.31;5031226;28;20571;-81
2023/07/29 08:04:21;;;;;;;1.83;1.13;;;;;;;20.22;54.83;100443.00;5032125;28;20834;-82
2023/07/29 08:06:49;;;;;;;3.00;1.30;;;;;;;20.30;54.80;100440.03;5031228;28;20132;-82
2023/07/29 08:09:17;;;;;;;2.22;1.20;;;;;;;20.42;54.57;100431.97;5026934;28;20152;-81
2023/07/29 08:11:46;;;;;;;2.55;1.30;;;;;;;20.52;54.22;100435.22;5026441;28;20554;-82
2023/07/29 08:14:14;;;;;;;2.72;1.10;;;;;;;20.61;54.15;100437.59;5042556;28;20049;-81
2023/07/29 08:16:41;;;;;;;1.63;1.10;;;;;;;20.73;53.79;100432.28;5025525;28;20044;-82
2023/07/29 08:19:09;;;;;;;1.48;1.10;;;;;;;20.84;53.83;100428.91;5024793;28;20064;-82
2023/07/29 08:21:39;;;;;;;1.67;1.20;;;;;;;20.98;53.12;100432.53;5025637;28;20424;-82
2023/07/29 08:24:07;;;;;;;1.73;1.10;;;;;;;21.08;52.40;100432.97;5028199;28;20098;-81
2023/07/29 08:26:35;;;;;;;1.42;0.90;;;;;;;21.18;52.27;100432.56;5026564;28;20641;-82
2023/07/29 08:29:03;;;;;;;2.47;1.00;;;;;;;21.29;51.76;100437.50;5006321;28;21243;-82
2023/07/29 08:31:33;;;;;;;1.73;1.05;;;;;;;21.36;50.88;100433.63;5011140;28;20049;-82
2023/07/29 08:34:01;;;;;;;2.05;0.88;;;;;;;21.45;51.07;100434.25;5015585;28;20049;-83
2023/07/29 08:36:29;;;;;;;1.10;0.80;;;;;;;21.52;50.51;100429.53;5016078;28;20774;-82
2023/07/29 08:38:58;;;;;;;1.00;0.77;;;;;;;21.60;50.07;100425.69;5015302;28;20048;-81
2023/07/29 08:41:30;;;;;;;1.27;0.70;;;;;;;21.66;50.32;100427.59;5002590;28;20064;-83
2023/07/29 08:44:07;;;;;;;1.85;0.93;;;;;;;21.70;49.32;100424.16;5010087;28;21241;-82
2023/07/29 08:46:40;;;;;;;2.03;1.00;;;;;;;21.77;49.57;100419.41;5014818;28;20417;-84
2023/07/29 08:49:09;;;;;;;2.00;0.90;;;;;;;21.81;49.81;100409.56;5012561;28;20542;-83
2023/07/29 08:51:37;;;;;;;1.60;0.80;;;;;;;21.86;49.52;100406.97;5010722;28;20139;-81
2023/07/29 08:54:07;;;;;;;1.67;0.93;;;;;;;21.96;49.07;100414.03;5010912;28;20049;-84
2023/07/29 08:56:35;;;;;;;1.25;0.80;;;;;;;21.99;48.66;100411.69;5010468;28;20175;-82
2023/07/29 08:59:04;;;;;;;1.40;0.95;;;;;;;22.05;48.81;100410.78;5009544;28;20195;-83
2023/07/29 09:01:32;;;;;;;1.42;0.80;;;;;;;22.11;48.59;100418.25;5008722;28;20045;-82
2023/07/29 09:04:01;;;;;;;2.22;0.90;;;;;;;22.18;48.43;100426.59;5008006;28;20048;-82
2023/07/29 09:06:29;;;;;;;1.73;0.80;;;;;;;22.25;48.21;100430.22;5008555;28;20308;-84
2023/07/29 09:08:57;;;;;;;1.42;0.90;;;;;;;22.32;48.21;100435.75;5010469;28;20049;-83
2023/07/29 09:11:28;;;;;;;1.55;0.93;;;;;;;22.41;47.45;100440.88;5010335;28;20573;-82
2023/07/29 09:13:56;;;;;;;2.40;0.90;;;;;;;22.43;47.47;100447.06;5010078;28;20202;-85
2023/07/29 09:16:25;;;;;;;2.08;0.90;;;;;;;22.47;47.03;100433.53;5016770;28;20073;-83
2023/07/29 09:18:53;;;;;;;2.83;0.70;;;;;;;22.50;46.88;100442.31;5012861;28;20049;-82
2023/07/29 09:21:24;;;;;;;0.98;0.80;;;;;;;22.54;45.92;100449.19;5011461;28;20066;-84
2023/07/29 09:23:52;;;;;;;1.15;0.70;;;;;;;22.51;46.49;100443.16;5010845;28;20053;-82
2023/07/29 09:26:24;;;;;;;2.90;1.02;;;;;;;22.54;45.51;100443.59;5008546;28;20051;-83
2023/07/29 09:28:55;;;;;;;2.20;1.00;;;;;;;22.52;45.55;100436.50;5010418;28;20425;-83
2023/07/29 09:31:25;;;;;;;2.13;0.80;;;;;;;22.49;45.98;100435.03;5010649;28;20299;-84
2023/07/29 09:33:56;;;;;;;2.08;0.88;;;;;;;22.52;45.49;100439.28;5008956;28;20174;-85
2023/07/29 09:36:25;;;;;;;1.27;0.70;;;;;;;22.45;46.23;100435.69;5011353;28;20636;-83
2023/07/29 09:38:57;;;;;;;1.70;0.80;;;;;;;22.50;45.06;100439.53;5016312;28;20049;-88
2023/07/29 09:41:26;;;;;;;1.27;0.70;;;;;;;22.45;45.22;100439.31;5020369;28;20045;-84
2023/07/29 09:43:59;;;;;;;1.35;0.75;;;;;;;22.49;44.38;100442.53;5013051;28;20045;-84
2023/07/29 09:46:33;;;;;;;1.35;0.88;;;;;;;22.46;44.17;100432.69;5022847;28;20611;-85
2023/07/29 09:49:03;;;;;;;0.95;0.70;;;;;;;22.44;45.01;100442.34;5011714;28;20500;-83
2023/07/29 09:51:31;;;;;;;1.10;0.80;;;;;;;22.41;45.02;100434.44;5008099;28;20052;-85
2023/07/29 09:54:03;;;;;;;1.48;0.70;;;;;;;22.41;44.14;100442.81;5007876;28;20641;-84
2023/07/29 09:56:32;;;;;;;1.30;0.80;;;;;;;22.34;45.28;100431.69;5009025;28;20503;-84
2023/07/29 09:59:01;;;;;;;1.48;0.70;;;;;;;22.36;44.71;100440.66;5007744;28;20056;-84
2023/07/29 10:01:34;;;;;;;1.80;0.80;;;;;;;22.33;44.96;100443.06;5011460;28;20057;-84
2023/07/29 10:04:04;;;;;;;1.50;0.85;;;;;;;22.32;44.80;100442.19;5011383;28;20049;-84
2023/07/29 10:06:35;;;;;;;1.05;0.68;;;;;;;22.30;44.57;100449.91;5010177;28;20566;-82
2023/07/29 10:09:06;;;;;;;1.77;1.00;;;;;;;22.25;44.80;100444.16;5009371;28;20106;-84
2023/07/29 10:11:36;;;;;;;2.13;1.10;;;;;;;22.25;44.62;100439.44;5010077;28;20531;-84
2023/07/29 10:14:06;;;;;;;3.08;1.13;;;;;;;22.26;44.83;100438.34;5009797;28;20143;-85
2023/07/29 10:16:38;;;;;;;2.50;1.10;;;;;;;22.25;44.98;100424.66;5009007;28;20057;-85
2023/07/29 10:19:08;;;;;;;1.75;0.90;;;;;;;22.26;45.02;100434.72;5024267;28;20708;-84
2023/07/29 10:21:39;;;;;;;1.30;0.90;;;;;;;22.28;44.73;100438.13;5023076;28;20095;-85
2023/07/29 10:24:16;;;;;;;1.83;0.80;;;;;;;22.26;44.69;100431.94;5026178;28;20901;-84
2023/07/29 10:26:47;;;;;;;2.50;1.00;;;;;;;22.28;44.66;100441.78;5015931;28;20052;-85
2023/07/29 10:29:20;;;;;;;2.03;1.05;;;;;;;22.31;43.93;100432.13;5013429;28;20056;-84
2023/07/29 10:31:49;;;;;;;2.25;0.90;;;;;;;22.30;44.56;100435.97;5019398;28;20652;-83
2023/07/29 10:34:18;;;;;;;2.70;0.98;;;;;;;22.33;44.65;100435.53;5015494;28;20148;-84
2023/07/29 10:36:48;;;;;;;1.58;0.82;;;;;;;22.37;44.57;100445.16;5007624;28;20555;-84
2023/07/29 10:39:16;;;;;;;2.13;1.08;;;;;;;22.37;44.18;100434.00;5014062;28;20050;-84
2023/07/29 10:41:57;;;;;;;1.60;0.98;;;;;;;22.39;43.67;100445.81;5006559;28;20155;-85
2023/07/29 10:44:52;;;;;;;1.80;0.88;;;;;;;22.36;43.57;100446.22;5009823;28;20622;-84
2023/07/29 10:47:24;;;;;;;1.63;0.98;;;;;;;22.37;44.32;100444.31;5005289;28;20606;-83
2023/07/29 10:49:54;;;;;;;2.30;1.10;;;;;;;22.38;44.04;100451.59;5008637;28;20045;-83
2023/07/29 10:52:41;;;;;;;1.30;0.88;;;;;;;22.38;43.10;100438.50;5017201;28;20045;-83
2023/07/29 10:55:30;;;;;;;1.70;1.10;;;;;;;22.32;43.30;100430.19;5011067;28;20049;-83
2023/07/29 10:58:17;;;;;;;1.88;1.00;;;;;;;22.31;43.43;100422.91;5024366;28;20507;-84
2023/07/29 11:00:47;;;;;;;2.75;1.20;;;;;;;22.32;44.38;100422.69;5006339;28;20475;-84
2023/07/29 11:03:16;;;;;;;1.55;1.00;;;;;;;22.32;44.17;100419.91;5006033;28;20693;-84
2023/07/29 11:05:48;;;;;;;1.98;0.95;;;;;;;22.37;44.09;100425.66;5010161;28;20157;-78
2023/07/29 11:08:20;;;;;;;;;;;;;;;22.07;45.31;100424.50;5003824;28;20978;-78
2023/07/29 11:11:00;;;;;;;1.73;0.90;;;;;;;22.41;43.38;100420.50;4992507;28;19952;-79
2023/07/29 11:13:28;;;;;;;1.50;1.00;;;;;;;22.46;44.02;100417.88;4990846;28;20281;-76
2023/07/29 11:15:59;;;;;;;1.00;0.73;;;;;;;22.54;43.55;100420.44;4991115;28;20967;-78
2023/07/29 11:18:29;;;;;;;2.03;0.88;;;;;;;22.61;44.00;100427.69;4991977;28;20664;-76
2023/07/29 11:20:58;;;;;;;1.77;1.08;;;;;;;22.69;43.56;100428.50;5017804;28;20057;-76
2023/07/29 11:23:31;;;;;;;3.08;1.45;;;;;;;22.77;43.13;100420.72;4995166;28;20060;-76
2023/07/29 11:26:00;;;;;;;1.60;1.02;;;;;;;22.80;42.85;100427.78;4997617;28;20054;-75
2023/07/29 11:28:28;;;;;;;2.35;1.23;;;;;;;22.84;42.99;100432.66;4999212;28;20586;-75
2023/07/29 11:30:58;;;;;;;2.25;1.05;;;;;;;22.88;42.45;100427.50;4997983;28;20373;-77
2023/07/29 11:33:28;;;;;;;2.00;1.00;;;;;;;22.88;42.27;100421.94;5006483;28;20825;-76
2023/07/29 11:35:56;;;;;;;2.47;1.20;;;;;;;22.87;42.60;100423.00;5007003;28;20132;-77
2023/07/29 11:38:24;;;;;;;1.40;0.90;;;;;;;22.88;42.45;100421.94;4996910;28;20053;-77
2023/07/29 11:40:57;;;;;;;3.15;1.17;;;;;;;22.92;41.98;100420.41;5007631;28;20566;-77
2023/07/29 11:43:26;;;;;;;2.05;1.00;;;;;;;22.88;42.43;100414.41;5008275;28;20216;-76
2023/07/29 11:45:54;;;;;;;12.18;1.30;;;;;;;22.90;42.43;100411.41;5023897;22;20045;-77
2023/07/29 11:48:33;;;;;;;1.85;1.02;;;;;;;22.95;41.25;100423.59;5007985;28;20060;-76
2023/07/29 11:51:04;;;;;;;2.90;1.08;;;;;;;22.93;42.13;100425.75;5008892;28;20710;-77
2023/07/29 11:53:32;;;;;;;2.17;1.10;;;;;;;22.94;42.11;100421.88;5032802;28;20071;-78
2023/07/29 11:56:00;;;;;;;2.22;1.13;;;;;;;22.97;41.77;100421.44;5037237;28;20163;-79
2023/07/29 11:58:29;;;;;;;2.10;1.23;;;;;;;22.98;41.92;100414.78;5031217;28;20075;-78
2023/07/29 12:00:59;;;;;;;1.95;1.02;;;;;;;23.01;41.91;100430.19;5045165;28;20751;-82
2023/07/29 12:03:28;;;;;;;1.80;1.05;;;;;;;23.02;41.66;100424.38;5053908;28;20052;-82
2023/07/29 12:05:58;;;;;;;2.50;1.27;;;;;;;23.04;41.57;100413.00;5038880;28;20052;-81
2023/07/29 12:08:26;;;;;;;2.05;1.27;;;;;;;23.05;41.54;100414.72;5048196;28;20221;-83
2023/07/29 12:10:55;;;;;;;2.47;1.38;;;;;;;23.06;41.90;100410.84;5060551;28;20781;-82
2023/07/29 12:13:25;;;;;;;2.35;1.38;;;;;;;23.11;41.79;100408.22;5053507;28;20068;-80
2023/07/29 12:16:06;;;;;;;2.03;1.10;;;;;;;23.12;41.23;100407.13;5037802;28;20044;-81
2023/07/29 12:18:34;;;;;;;2.25;1.20;;;;;;;23.14;42.02;100410.56;5020812;28;20153;-79
2023/07/29 12:21:04;;;;;;;1.85;1.13;;;;;;;23.20;41.46;100408.81;5023510;28;20055;-80
2023/07/29 12:23:32;;;;;;;1.95;1.00;;;;;;;23.21;41.52;100403.00;5021743;28;20143;-79
2023/07/29 12:26:01;;;;;;;1.25;0.98;;;;;;;23.24;41.45;100396.97;5017425;28;20044;-79
2023/07/29 12:28:31;;;;;;;2.22;1.23;;;;;;;23.32;41.24;100396.69;5023284;28;20741;-79
2023/07/29 12:31:00;;;;;;;1.70;0.98;;;;;;;23.38;41.01;100395.75;5009878;28;20051;-80
2023/07/29 12:33:33;;;;;;;1.70;1.00;;;;;;;23.45;40.82;100392.03;5010558;28;20639;-82
2023/07/29 12:36:01;;;;;;;1.67;1.10;;;;;;;23.45;41.15;100389.25;5013180;28;20711;-83
2023/07/29 12:38:33;;;;;;;2.45;1.30;;;;;;;23.56;40.47;100391.28;5036467;28;20048;-82
2023/07/29 12:41:01;;;;;;;1.83;1.05;;;;;;;23.59;40.72;100379.63;5011325;28;20041;-82
2023/07/29 12:43:30;;;;;;;2.40;1.23;;;;;;;23.66;40.46;100381.25;5031044;28;20048;-82
2023/07/29 12:45:58;;;;;;;1.85;1.20;;;;;;;23.68;40.43;100384.69;5012733;28;20067;-83
2023/07/29 12:48:27;;;;;;;2.10;1.10;;;;;;;23.73;40.40;100382.06;5026008;28;20051;-82
2023/07/29 12:50:59;;;;;;;2.08;1.08;;;;;;;23.77;39.73;100383.34;5012224;28;20047;-79
2023/07/29 12:53:27;;;;;;;2.40;1.10;;;;;;;23.79;39.45;100374.72;5013307;28;20053;-79
2023/07/29 12:55:56;;;;;;;1.80;1.10;;;;;;;23.84;39.40;100376.81;5026436;28;20051;-80
2023/07/29 12:58:24;;;;;;;1.60;1.05;;;;;;;23.84;39.12;100379.59;5010198;28;20079;-80
2023/07/29 13:00:55;;;;;;;3.53;1.30;;;;;;;23.87;38.92;100380.00;5013950;28;20071;-82
2023/07/29 13:03:32;;;;;;;1.70;1.08;;;;;;;23.88;38.94;100378.91;5036867;28;20263;-83
2023/07/29 13:06:01;;;;;;;1.80;1.10;;;;;;;23.87;39.45;100387.53;5039313;28;20055;-82
2023/07/29 13:08:31;;;;;;;1.92;1.02;;;;;;;23.90;39.53;100385.13;5031342;28;20758;-83
2023/07/29 13:11:00;;;;;;;1.67;0.90;;;;;;;23.91;39.43;100386.81;5029952;28;20877;-82
2023/07/29 13:13:28;;;;;;;2.42;1.20;;;;;;;23.90;39.47;100390.72;5035287;28;20493;-83
2023/07/29 13:15:58;;;;;;;2.47;1.30;;;;;;;23.90;39.11;100399.09;5029968;28;20049;-82
2023/07/29 13:18:30;;;;;;;2.38;1.20;;;;;;;23.88;38.47;100401.28;5035250;28;20053;-82
2023/07/29 13:21:01;;;;;;;2.05;1.25;;;;;;;23.90;38.29;100407.50;5036184;28;20408;-83